sensor_id;sensor_type;location;lat;lon;timestamp;pressure;altitude;pressure_sealevel;temperature;humidity
57192;BME280;43052;52.588;13.396;2023-04-24T00:00:06;99916.16;;;10.53;75.29
57192;BME280;43052;52.588;13.396;2023-04-24T00:02:34;99912.59;;;10.57;75.21
57192;BME280;43052;52.588;13.396;2023-04-24T00:04:59;99902.13;;;10.57;75.04
57192;BME280;43052;52.588;13.396;2023-04-24T00:07:27;99902.16;;;10.56;75.54
57192;BME280;43052;52.588;13.396;2023-04-24T00:09:52;99896.06;;;10.55;75.23
57192;BME280;43052;52.588;13.396;2023-04-24T00:12:17;99896.13;;;10.52;75.24
57192;BME280;43052;52.588;13.396;2023-04-24T00:14:43;99896.13;;;10.52;75.58
57192;BME280;43052;52.588;13.396;2023-04-24T00:17:08;99894.41;;;10.51;75.59
57192;BME280;43052;52.588;13.396;2023-04-24T00:19:33;99886.63;;;10.48;75.30
57192;BME280;43052;52.588;13.396;2023-04-24T00:21:58;99891.00;;;10.47;75.71
57192;BME280;43052;52.588;13.396;2023-04-24T00:24:24;99885.78;;;10.46;75.96
57192;BME280;43052;52.588;13.396;2023-04-24T00:26:49;99878.91;;;10.42;76.09
57192;BME280;43052;52.588;13.396;2023-04-24T00:29:14;99878.81;;;10.46;76.30
57192;BME280;43052;52.588;13.396;2023-04-24T00:31:39;99858.91;;;10.39;76.48
57192;BME280;43052;52.588;13.396;2023-04-24T00:34:05;99870.19;;;10.41;76.52
57192;BME280;43052;52.588;13.396;2023-04-24T00:36:30;99866.78;;;10.38;76.46
57192;BME280;43052;52.588;13.396;2023-04-24T00:38:56;99853.69;;;10.38;76.86
57192;BME280;43052;52.588;13.396;2023-04-24T00:41:21;99854.53;;;10.40;76.79
57192;BME280;43052;52.588;13.396;2023-04-24T00:43:47;99859.75;;;10.40;76.42
57192;BME280;43052;52.588;13.396;2023-04-24T00:46:13;99855.47;;;10.37;76.71
57192;BME280;43052;52.588;13.396;2023-04-24T00:48:39;99851.09;;;10.38;76.98
57192;BME280;43052;52.588;13.396;2023-04-24T00:51:05;99854.53;;;10.40;76.84
57192;BME280;43052;52.588;13.396;2023-04-24T00:53:30;99844.94;;;10.40;77.06
57192;BME280;43052;52.588;13.396;2023-04-24T00:55:56;99838.84;;;10.40;77.16
57192;BME280;43052;52.588;13.396;2023-04-24T00:58:22;99837.97;;;10.41;77.00
57192;BME280;43052;52.588;13.396;2023-04-24T01:00:48;99835.41;;;10.38;77.12
57192;BME280;43052;52.588;13.396;2023-04-24T01:03:14;99827.56;;;10.38;77.36
57192;BME280;43052;52.588;13.396;2023-04-24T01:05:41;99824.09;;;10.37;77.20
57192;BME280;43052;52.588;13.396;2023-04-24T01:08:06;99822.31;;;10.39;77.48
57192;BME280;43052;52.588;13.396;2023-04-24T01:10:33;99821.41;;;10.40;77.64
57192;BME280;43052;52.588;13.396;2023-04-24T01:12:58;99811.88;;;10.39;78.18
57192;BME280;43052;52.588;13.396;2023-04-24T01:15:24;99810.84;;;10.46;77.59
57192;BME280;43052;52.588;13.396;2023-04-24T01:17:49;99835.13;;;10.52;77.92
57192;BME280;43052;52.588;13.396;2023-04-24T01:20:15;99835.94;;;10.55;77.57
57192;BME280;43052;52.588;13.396;2023-04-24T01:22:41;99835.91;;;10.57;77.27
57192;BME280;43052;52.588;13.396;2023-04-24T01:25:07;99829.69;;;10.62;77.45
57192;BME280;43052;52.588;13.396;2023-04-24T01:27:32;99827.84;;;10.68;77.15
57192;BME280;43052;52.588;13.396;2023-04-24T01:29:57;99835.59;;;10.72;77.02
57192;BME280;43052;52.588;13.396;2023-04-24T01:32:23;99834.63;;;10.78;77.07
57192;BME280;43052;52.588;13.396;2023-04-24T01:34:50;99828.50;;;10.79;76.93
57192;BME280;43052;52.588;13.396;2023-04-24T01:37:15;99831.00;;;10.84;76.90
57192;BME280;43052;52.588;13.396;2023-04-24T01:39:41;99829.03;;;10.93;76.99
57192;BME280;43052;52.588;13.396;2023-04-24T01:42:06;99822.72;;;11.02;76.84
57192;BME280;43052;52.588;13.396;2023-04-24T01:44:33;99819.06;;;11.11;76.54
57192;BME280;43052;52.588;13.396;2023-04-24T01:47:00;99808.38;;;11.20;76.40
57192;BME280;43052;52.588;13.396;2023-04-24T01:49:26;99809.22;;;11.22;76.45
57192;BME280;43052;52.588;13.396;2023-04-24T01:51:51;99800.38;;;11.26;76.44
57192;BME280;43052;52.588;13.396;2023-04-24T01:54:16;99804.66;;;11.31;76.32
57192;BME280;43052;52.588;13.396;2023-04-24T01:56:42;99802.78;;;11.36;76.18
57192;BME280;43052;52.588;13.396;2023-04-24T01:59:10;99801.81;;;11.40;75.90
57192;BME280;43052;52.588;13.396;2023-04-24T02:01:36;99793.88;;;11.43;75.90
57192;BME280;43052;52.588;13.396;2023-04-24T02:04:02;99794.78;;;11.42;75.83
57192;BME280;43052;52.588;13.396;2023-04-24T02:06:27;99790.53;;;11.38;75.70
57192;BME280;43052;52.588;13.396;2023-04-24T02:08:53;99792.19;;;11.40;75.68
57192;BME280;43052;52.588;13.396;2023-04-24T02:11:18;99794.78;;;11.42;75.75
57192;BME280;43052;52.588;13.396;2023-04-24T02:13:43;99799.16;;;11.41;75.14
57192;BME280;43052;52.588;13.396;2023-04-24T02:16:09;99793.09;;;11.39;75.09
57192;BME280;43052;52.588;13.396;2023-04-24T02:18:34;99787.97;;;11.36;75.20
57192;BME280;43052;52.588;13.396;2023-04-24T02:21:00;99787.09;;;11.36;75.00
57192;BME280;43052;52.588;13.396;2023-04-24T02:23:25;99780.13;;;11.35;74.90
57192;BME280;43052;52.588;13.396;2023-04-24T02:25:52;99782.84;;;11.30;75.07
57192;BME280;43052;52.588;13.396;2023-04-24T02:28:18;99778.50;;;11.29;75.26
57192;BME280;43052;52.588;13.396;2023-04-24T02:30:43;99772.38;;;11.30;75.20
57192;BME280;43052;52.588;13.396;2023-04-24T02:33:08;99783.72;;;11.31;75.20
57192;BME280;43052;52.588;13.396;2023-04-24T02:35:34;99775.81;;;11.32;75.21
57192;BME280;43052;52.588;13.396;2023-04-24T02:37:59;99781.00;;;11.34;75.09
57192;BME280;43052;52.588;13.396;2023-04-24T02:40:24;99777.63;;;11.30;75.05
57192;BME280;43052;52.588;13.396;2023-04-24T02:42:50;99775.00;;;11.30;75.21
57192;BME280;43052;52.588;13.396;2023-04-24T02:45:15;99778.44;;;11.32;75.14
57192;BME280;43052;52.588;13.396;2023-04-24T02:47:41;99780.13;;;11.35;75.13
57192;BME280;43052;52.588;13.396;2023-04-24T02:50:06;99772.25;;;11.36;74.90
57192;BME280;43052;52.588;13.396;2023-04-24T02:52:32;99765.25;;;11.37;75.07
57192;BME280;43052;52.588;13.396;2023-04-24T02:54:57;99763.34;;;11.43;75.04
57192;BME280;43052;52.588;13.396;2023-04-24T02:57:22;99764.06;;;11.50;75.09
57192;BME280;43052;52.588;13.396;2023-04-24T02:59:48;99770.03;;;11.55;74.90
57192;BME280;43052;52.588;13.396;2023-04-24T03:02:13;99764.72;;;11.58;74.68
57192;BME280;43052;52.588;13.396;2023-04-24T03:04:38;99762.00;;;11.62;75.09
57192;BME280;43052;52.588;13.396;2023-04-24T03:07:04;99763.66;;;11.66;74.91
57192;BME280;43052;52.588;13.396;2023-04-24T03:09:30;99761.88;;;11.66;74.79
57192;BME280;43052;52.588;13.396;2023-04-24T03:11:55;99770.56;;;11.68;74.68
57192;BME280;43052;52.588;13.396;2023-04-24T03:14:21;99766.97;;;11.72;74.70
57192;BME280;43052;52.588;13.396;2023-04-24T03:16:46;99777.31;;;11.77;74.53
57192;BME280;43052;52.588;13.396;2023-04-24T03:19:12;99785.97;;;11.81;74.47
57192;BME280;43052;52.588;13.396;2023-04-24T03:21:38;99781.50;;;11.84;74.48
57192;BME280;43052;52.588;13.396;2023-04-24T03:24:06;99787.34;;;11.94;74.26
57192;BME280;43052;52.588;13.396;2023-04-24T03:26:32;99782.06;;;11.96;74.42
57192;BME280;43052;52.588;13.396;2023-04-24T03:28:57;99783.69;;;12.03;74.03
57192;BME280;43052;52.588;13.396;2023-04-24T03:31:22;99783.56;;;12.06;74.06
57192;BME280;43052;52.588;13.396;2023-04-24T03:33:48;99786.97;;;12.10;73.98
57192;BME280;43052;52.588;13.396;2023-04-24T03:36:13;99775.53;;;12.12;74.03
57192;BME280;43052;52.588;13.396;2023-04-24T03:38:38;99775.47;;;12.15;73.70
57192;BME280;43052;52.588;13.396;2023-04-24T03:41:04;99772.78;;;12.18;73.68
57192;BME280;43052;52.588;13.396;2023-04-24T03:43:29;99766.50;;;12.24;73.58
57192;BME280;43052;52.588;13.396;2023-04-24T03:45:54;99769.97;;;12.25;73.67
57192;BME280;43052;52.588;13.396;2023-04-24T03:48:19;99779.63;;;12.22;73.65
57192;BME280;43052;52.588;13.396;2023-04-24T03:50:45;99789.97;;;12.29;73.60
57192;BME280;43052;52.588;13.396;2023-04-24T03:53:10;99790.75;;;12.31;73.42
57192;BME280;43052;52.588;13.396;2023-04-24T03:55:35;99786.38;;;12.31;73.28
57192;BME280;43052;52.588;13.396;2023-04-24T03:58:01;99788.19;;;12.29;73.10
57192;BME280;43052;52.588;13.396;2023-04-24T04:00:26;99781.16;;;12.30;73.08
57192;BME280;43052;52.588;13.396;2023-04-24T04:02:51;99780.25;;;12.31;73.16
57192;BME280;43052;52.588;13.396;2023-04-24T04:05:16;99778.53;;;12.30;72.99
57192;BME280;43052;52.588;13.396;2023-04-24T04:07:42;99778.53;;;12.31;73.01
57192;BME280;43052;52.588;13.396;2023-04-24T04:10:07;99775.78;;;12.34;72.90
57192;BME280;43052;52.588;13.396;2023-04-24T04:12:32;99777.50;;;12.37;72.95
57192;BME280;43052;52.588;13.396;2023-04-24T04:14:58;99772.25;;;12.37;72.88
57192;BME280;43052;52.588;13.396;2023-04-24T04:17:24;99773.91;;;12.40;72.62
57192;BME280;43052;52.588;13.396;2023-04-24T04:19:49;99766.06;;;12.40;72.67
57192;BME280;43052;52.588;13.396;2023-04-24T04:22:14;99764.28;;;12.40;72.77
57192;BME280;43052;52.588;13.396;2023-04-24T04:24:39;99759.13;;;12.37;72.61
57192;BME280;43052;52.588;13.396;2023-04-24T04:27:05;99765.91;;;12.44;72.17
57192;BME280;43052;52.588;13.396;2023-04-24T04:29:31;99768.50;;;12.46;72.46
57192;BME280;43052;52.588;13.396;2023-04-24T04:31:56;99764.97;;;12.47;72.13
57192;BME280;43052;52.588;13.396;2023-04-24T04:34:22;99770.97;;;12.50;72.07
57192;BME280;43052;52.588;13.396;2023-04-24T04:36:47;99770.91;;;12.52;72.12
57192;BME280;43052;52.588;13.396;2023-04-24T04:39:13;99764.75;;;12.54;71.86
57192;BME280;43052;52.588;13.396;2023-04-24T04:41:40;99770.00;;;12.54;71.97
57192;BME280;43052;52.588;13.396;2023-04-24T04:44:05;99764.75;;;12.54;71.67
57192;BME280;43052;52.588;13.396;2023-04-24T04:46:31;99776.03;;;12.57;72.04
57192;BME280;43052;52.588;13.396;2023-04-24T04:49:02;99772.56;;;12.56;71.54
57192;BME280;43052;52.588;13.396;2023-04-24T04:51:27;99779.59;;;12.56;71.43
57192;BME280;43052;52.588;13.396;2023-04-24T04:53:53;99785.69;;;12.56;71.57
57192;BME280;43052;52.588;13.396;2023-04-24T04:56:18;99790.78;;;12.61;71.66
57192;BME280;43052;52.588;13.396;2023-04-24T04:58:43;99783.59;;;12.67;71.48
57192;BME280;43052;52.588;13.396;2023-04-24T05:01:09;99790.28;;;12.78;71.06
57192;BME280;43052;52.588;13.396;2023-04-24T05:03:34;99794.41;;;12.87;70.97
57192;BME280;43052;52.588;13.396;2023-04-24T05:05:59;99784.66;;;12.90;70.68
57192;BME280;43052;52.588;13.396;2023-04-24T05:08:25;99797.50;;;12.99;70.63
57192;BME280;43052;52.588;13.396;2023-04-24T05:10:50;99790.31;;;13.05;70.28
57192;BME280;43052;52.588;13.396;2023-04-24T05:13:15;99798.59;;;13.21;70.09
57192;BME280;43052;52.588;13.396;2023-04-24T05:15:40;99799.03;;;13.35;69.82
57192;BME280;43052;52.588;13.396;2023-04-24T05:18:06;99795.16;;;13.47;69.35
57192;BME280;43052;52.588;13.396;2023-04-24T05:20:31;99800.72;;;13.65;69.04
57192;BME280;43052;52.588;13.396;2023-04-24T05:22:56;99800.34;;;13.75;68.59
57192;BME280;43052;52.588;13.396;2023-04-24T05:25:21;99793.59;;;13.93;68.54
57192;BME280;43052;52.588;13.396;2023-04-24T05:27:47;99787.59;;;14.15;68.09
57192;BME280;43052;52.588;13.396;2023-04-24T05:30:12;99790.63;;;14.52;67.04
57192;BME280;43052;52.588;13.396;2023-04-24T05:32:38;99797.56;;;15.67;66.07
57192;BME280;43052;52.588;13.396;2023-04-24T05:35:03;99794.09;;;16.86;63.15
57192;BME280;43052;52.588;13.396;2023-04-24T05:37:28;99798.09;;;17.50;60.46
57192;BME280;43052;52.588;13.396;2023-04-24T05:39:54;99793.28;;;17.59;59.85
57192;BME280;43052;52.588;13.396;2023-04-24T05:42:19;99800.25;;;17.42;59.41
57192;BME280;43052;52.588;13.396;2023-04-24T05:44:45;99795.00;;;17.77;58.56
57192;BME280;43052;52.588;13.396;2023-04-24T05:47:10;99796.38;;;18.53;57.32
57192;BME280;43052;52.588;13.396;2023-04-24T05:49:35;99789.66;;;19.44;54.92
57192;BME280;43052;52.588;13.396;2023-04-24T05:52:01;99788.38;;;19.65;53.82
57192;BME280;43052;52.588;13.396;2023-04-24T05:54:26;99789.09;;;19.83;53.00
57192;BME280;43052;52.588;13.396;2023-04-24T05:56:52;99792.69;;;20.13;51.88
57192;BME280;43052;52.588;13.396;2023-04-24T05:59:19;99790.00;;;20.71;50.09
57192;BME280;43052;52.588;13.396;2023-04-24T06:01:44;99791.81;;;20.85;49.59
57192;BME280;43052;52.588;13.396;2023-04-24T06:04:09;99795.00;;;21.32;47.88
57192;BME280;43052;52.588;13.396;2023-04-24T06:06:35;99799.66;;;22.21;46.11
57192;BME280;43052;52.588;13.396;2023-04-24T06:09:00;99799.13;;;22.92;44.35
57192;BME280;43052;52.588;13.396;2023-04-24T06:11:26;99803.91;;;23.37;43.46
57192;BME280;43052;52.588;13.396;2023-04-24T06:13:51;99793.22;;;23.61;41.09
57192;BME280;43052;52.588;13.396;2023-04-24T06:16:17;99800.97;;;24.00;41.42
57192;BME280;43052;52.588;13.396;2023-04-24T06:18:42;99802.66;;;25.15;39.71
57192;BME280;43052;52.588;13.396;2023-04-24T06:21:07;99801.16;;;25.87;38.28
57192;BME280;43052;52.588;13.396;2023-04-24T06:23:32;99801.03;;;25.24;37.80
57192;BME280;43052;52.588;13.396;2023-04-24T06:25:59;99810.00;;;24.56;39.05
57192;BME280;43052;52.588;13.396;2023-04-24T06:28:24;99810.72;;;24.58;38.87
57192;BME280;43052;52.588;13.396;2023-04-24T06:30:50;99809.88;;;25.35;37.72
57192;BME280;43052;52.588;13.396;2023-04-24T06:33:16;99806.91;;;26.25;35.99
57192;BME280;43052;52.588;13.396;2023-04-24T06:35:41;99804.03;;;27.59;34.14
57192;BME280;43052;52.588;13.396;2023-04-24T06:38:06;99804.75;;;28.38;32.82
57192;BME280;43052;52.588;13.396;2023-04-24T06:40:31;99805.31;;;29.43;30.90
57192;BME280;43052;52.588;13.396;2023-04-24T06:42:57;99806.16;;;30.67;29.00
57192;BME280;43052;52.588;13.396;2023-04-24T06:45:23;99804.47;;;32.16;27.59
57192;BME280;43052;52.588;13.396;2023-04-24T06:47:48;99804.97;;;33.08;26.39
57192;BME280;43052;52.588;13.396;2023-04-24T06:50:13;99802.34;;;32.52;26.01
57192;BME280;43052;52.588;13.396;2023-04-24T06:52:40;99809.16;;;32.47;25.80
57192;BME280;43052;52.588;13.396;2023-04-24T06:55:06;99811.94;;;31.90;25.68
57192;BME280;43052;52.588;13.396;2023-04-24T06:57:31;99811.78;;;31.99;26.48
57192;BME280;43052;52.588;13.396;2023-04-24T06:59:56;99809.47;;;32.53;25.96
57192;BME280;43052;52.588;13.396;2023-04-24T07:02:22;99799.91;;;33.36;23.81
57192;BME280;43052;52.588;13.396;2023-04-24T07:04:47;99797.06;;;33.76;23.89
57192;BME280;43052;52.588;13.396;2023-04-24T07:07:12;99798.81;;;33.46;23.24
57192;BME280;43052;52.588;13.396;2023-04-24T07:09:39;99795.63;;;32.47;24.32
57192;BME280;43052;52.588;13.396;2023-04-24T07:12:06;99796.13;;;32.51;23.77
57192;BME280;43052;52.588;13.396;2023-04-24T07:14:32;99800.59;;;32.11;24.14
57192;BME280;43052;52.588;13.396;2023-04-24T07:16:57;99805.13;;;30.68;25.90
57192;BME280;43052;52.588;13.396;2023-04-24T07:19:22;99791.31;;;31.22;25.51
57192;BME280;43052;52.588;13.396;2023-04-24T07:21:48;99791.34;;;32.93;23.92
57192;BME280;43052;52.588;13.396;2023-04-24T07:24:13;99804.97;;;34.31;21.23
57192;BME280;43052;52.588;13.396;2023-04-24T07:26:38;99798.53;;;35.57;20.47
57192;BME280;43052;52.588;13.396;2023-04-24T07:29:04;99795.63;;;36.92;19.12
57192;BME280;43052;52.588;13.396;2023-04-24T07:31:31;99793.34;;;37.09;19.22
57192;BME280;43052;52.588;13.396;2023-04-24T07:33:56;99793.22;;;37.78;17.98
57192;BME280;43052;52.588;13.396;2023-04-24T07:36:23;99794.69;;;37.40;18.50
57192;BME280;43052;52.588;13.396;2023-04-24T07:38:49;99800.53;;;37.24;18.92
57192;BME280;43052;52.588;13.396;2023-04-24T07:41:14;99805.06;;;38.51;17.46
57192;BME280;43052;52.588;13.396;2023-04-24T07:43:40;99804.91;;;39.87;15.92
57192;BME280;43052;52.588;13.396;2023-04-24T07:46:06;99797.72;;;40.30;15.39
57192;BME280;43052;52.588;13.396;2023-04-24T07:48:32;99791.78;;;41.01;14.70
57192;BME280;43052;52.588;13.396;2023-04-24T07:50:57;99796.25;;;41.80;14.03
57192;BME280;43052;52.588;13.396;2023-04-24T07:53:22;99797.25;;;42.09;13.58
57192;BME280;43052;52.588;13.396;2023-04-24T07:55:47;99790.41;;;42.24;13.32
57192;BME280;43052;52.588;13.396;2023-04-24T07:58:13;99791.75;;;42.91;13.20
57192;BME280;43052;52.588;13.396;2023-04-24T08:00:38;99796.69;;;43.69;12.75
57192;BME280;43052;52.588;13.396;2023-04-24T08:03:03;99803.50;;;44.40;12.22
57192;BME280;43052;52.588;13.396;2023-04-24T08:05:29;99804.94;;;44.70;11.81
57192;BME280;43052;52.588;13.396;2023-04-24T08:07:55;99804.66;;;44.05;11.52
57192;BME280;43052;52.588;13.396;2023-04-24T08:10:22;99808.34;;;43.25;12.87
57192;BME280;43052;52.588;13.396;2023-04-24T08:12:47;99802.31;;;43.96;11.54
57192;BME280;43052;52.588;13.396;2023-04-24T08:15:13;99788.09;;;44.66;11.62
57192;BME280;43052;52.588;13.396;2023-04-24T08:17:38;99792.97;;;44.81;10.79
57192;BME280;43052;52.588;13.396;2023-04-24T08:20:04;99803.88;;;43.36;11.32
57192;BME280;43052;52.588;13.396;2023-04-24T08:22:30;99802.06;;;39.94;13.31
57192;BME280;43052;52.588;13.396;2023-04-24T08:24:56;99808.94;;;37.69;15.16
57192;BME280;43052;52.588;13.396;2023-04-24T08:27:22;99800.66;;;36.47;16.62
57192;BME280;43052;52.588;13.396;2023-04-24T08:29:48;99808.03;;;35.24;16.78
57192;BME280;43052;52.588;13.396;2023-04-24T08:32:13;99799.94;;;33.51;18.80
57192;BME280;43052;52.588;13.396;2023-04-24T08:34:38;99798.44;;;31.81;20.39
57192;BME280;43052;52.588;13.396;2023-04-24T08:37:03;99795.63;;;30.99;21.59
57192;BME280;43052;52.588;13.396;2023-04-24T08:39:29;99791.72;;;30.85;21.57
57192;BME280;43052;52.588;13.396;2023-04-24T08:41:55;99787.31;;;31.68;20.62
57192;BME280;43052;52.588;13.396;2023-04-24T08:44:21;99792.44;;;32.35;20.80
57192;BME280;43052;52.588;13.396;2023-04-24T08:46:48;99800.13;;;31.49;21.13
57192;BME280;43052;52.588;13.396;2023-04-24T08:49:14;99798.06;;;30.06;22.26
57192;BME280;43052;52.588;13.396;2023-04-24T08:51:43;99786.00;;;28.84;24.04
57192;BME280;43052;52.588;13.396;2023-04-24T08:54:09;99792.56;;;27.57;25.17
57192;BME280;43052;52.588;13.396;2023-04-24T08:56:36;99795.22;;;27.96;25.72
57192;BME280;43052;52.588;13.396;2023-04-24T08:59:05;99792.66;;;31.18;23.54
57192;BME280;43052;52.588;13.396;2023-04-24T09:01:32;99789.25;;;33.03;20.68
57192;BME280;43052;52.588;13.396;2023-04-24T09:04:01;99797.00;;;32.75;20.90
57192;BME280;43052;52.588;13.396;2023-04-24T09:06:30;99797.84;;;33.62;19.57
57192;BME280;43052;52.588;13.396;2023-04-24T09:09:00;99795.44;;;33.67;19.21
57192;BME280;43052;52.588;13.396;2023-04-24T09:11:26;99798.75;;;32.03;20.58
57192;BME280;43052;52.588;13.396;2023-04-24T09:13:53;99800.75;;;30.32;21.99
57192;BME280;43052;52.588;13.396;2023-04-24T09:16:19;99812.78;;;29.21;23.79
57192;BME280;43052;52.588;13.396;2023-04-24T09:18:45;99800.19;;;28.38;24.10
57192;BME280;43052;52.588;13.396;2023-04-24T09:21:10;99801.03;;;27.52;25.15
57192;BME280;43052;52.588;13.396;2023-04-24T09:23:36;99807.72;;;26.78;26.69
57192;BME280;43052;52.588;13.396;2023-04-24T09:26:03;99806.75;;;26.26;26.90
57192;BME280;43052;52.588;13.396;2023-04-24T09:28:33;99804.72;;;25.76;27.93
57192;BME280;43052;52.588;13.396;2023-04-24T09:31:12;99801.94;;;25.01;28.46
57192;BME280;43052;52.588;13.396;2023-04-24T09:36:44;99808.91;;;24.47;29.55
57192;BME280;43052;52.588;13.396;2023-04-24T09:39:12;99807.28;;;25.01;29.12
57192;BME280;43052;52.588;13.396;2023-04-24T09:41:54;99805.50;;;24.79;29.35
57192;BME280;43052;52.588;13.396;2023-04-24T09:44:24;99810.69;;;24.13;30.78
57192;BME280;43052;52.588;13.396;2023-04-24T09:46:52;99812.19;;;23.45;31.69
57192;BME280;43052;52.588;13.396;2023-04-24T09:49:28;99813.53;;;22.90;32.31
57192;BME280;43052;52.588;13.396;2023-04-24T09:52:03;99808.44;;;23.11;33.01
57192;BME280;43052;52.588;13.396;2023-04-24T09:54:28;99805.88;;;23.46;32.23
57192;BME280;43052;52.588;13.396;2023-04-24T09:56:54;99813.25;;;23.43;32.54
57192;BME280;43052;52.588;13.396;2023-04-24T09:59:20;99807.25;;;23.28;32.72
57192;BME280;43052;52.588;13.396;2023-04-24T10:01:46;99815.94;;;23.06;33.50
57192;BME280;43052;52.588;13.396;2023-04-24T10:04:18;99816.44;;;22.87;34.53
57192;BME280;43052;52.588;13.396;2023-04-24T10:06:44;99803.94;;;22.87;34.28
57192;BME280;43052;52.588;13.396;2023-04-24T10:09:10;99796.56;;;23.52;33.61
57192;BME280;43052;52.588;13.396;2023-04-24T10:11:41;99802.59;;;24.82;32.11
57192;BME280;43052;52.588;13.396;2023-04-24T10:14:09;99802.16;;;26.38;30.32
57192;BME280;43052;52.588;13.396;2023-04-24T10:16:36;99788.13;;;29.26;26.65
57192;BME280;43052;52.588;13.396;2023-04-24T10:19:02;99787.66;;;30.89;24.78
57192;BME280;43052;52.588;13.396;2023-04-24T10:21:28;99792.72;;;30.75;24.54
57192;BME280;43052;52.588;13.396;2023-04-24T10:23:53;99779.00;;;29.81;25.31
57192;BME280;43052;52.588;13.396;2023-04-24T10:26:19;99787.38;;;29.52;26.53
57192;BME280;43052;52.588;13.396;2023-04-24T10:28:48;99791.38;;;29.48;25.39
57192;BME280;43052;52.588;13.396;2023-04-24T10:31:13;99789.63;;;28.65;26.25
57192;BME280;43052;52.588;13.396;2023-04-24T10:33:41;99796.81;;;27.59;27.76
57192;BME280;43052;52.588;13.396;2023-04-24T10:36:09;99802.16;;;26.69;29.06
57192;BME280;43052;52.588;13.396;2023-04-24T10:38:35;99791.34;;;25.76;29.78
57192;BME280;43052;52.588;13.396;2023-04-24T10:41:09;99790.72;;;24.75;31.40
57192;BME280;43052;52.588;13.396;2023-04-24T10:43:39;99790.47;;;23.74;32.74
57192;BME280;43052;52.588;13.396;2023-04-24T10:46:05;99798.00;;;22.83;33.90
57192;BME280;43052;52.588;13.396;2023-04-24T10:48:31;99796.56;;;22.41;34.59
57192;BME280;43052;52.588;13.396;2023-04-24T10:50:57;99794.53;;;22.05;35.40
57192;BME280;43052;52.588;13.396;2023-04-24T10:53:25;99799.19;;;21.76;36.19
57192;BME280;43052;52.588;13.396;2023-04-24T10:56:06;99802.16;;;21.44;37.24
57192;BME280;43052;52.588;13.396;2023-04-24T10:58:43;99800.91;;;21.22;38.13
57192;BME280;43052;52.588;13.396;2023-04-24T11:01:29;99794.44;;;21.26;37.56
57192;BME280;43052;52.588;13.396;2023-04-24T11:03:58;99803.31;;;21.40;37.00
57192;BME280;43052;52.588;13.396;2023-04-24T11:06:37;99792.25;;;21.60;37.38
57192;BME280;43052;52.588;13.396;2023-04-24T11:09:08;99795.69;;;21.88;37.28
57192;BME280;43052;52.588;13.396;2023-04-24T11:11:38;99792.94;;;22.16;37.10
57192;BME280;43052;52.588;13.396;2023-04-24T11:14:10;99793.00;;;22.79;36.34
57192;BME280;43052;52.588;13.396;2023-04-24T11:16:39;99795.00;;;23.25;34.95
57192;BME280;43052;52.588;13.396;2023-04-24T11:24:32;99778.03;;;23.62;33.41
57192;BME280;43052;52.588;13.396;2023-04-24T11:27:09;99780.00;;;23.71;33.53
57192;BME280;43052;52.588;13.396;2023-04-24T11:29:49;99773.94;;;23.69;34.11
57192;BME280;43052;52.588;13.396;2023-04-24T11:32:23;99783.41;;;23.73;33.75
57192;BME280;43052;52.588;13.396;2023-04-24T11:34:50;99782.53;;;23.61;33.79
57192;BME280;43052;52.588;13.396;2023-04-24T11:37:17;99788.94;;;23.10;34.88
57192;BME280;43052;52.588;13.396;2023-04-24T11:39:42;99793.47;;;22.60;35.07
57192;BME280;43052;52.588;13.396;2023-04-24T11:42:09;99786.22;;;21.97;35.97
57192;BME280;43052;52.588;13.396;2023-04-24T11:44:35;99806.91;;;21.39;38.46
57192;BME280;43052;52.588;13.396;2023-04-24T11:47:04;99817.91;;;20.63;41.32
57192;BME280;43052;52.588;13.396;2023-04-24T11:49:29;99824.69;;;19.95;43.52
57192;BME280;43052;52.588;13.396;2023-04-24T11:51:55;99825.06;;;19.26;46.15
57192;BME280;43052;52.588;13.396;2023-04-24T11:54:20;99825.63;;;18.68;48.45
57192;BME280;43052;52.588;13.396;2023-04-24T11:56:47;99819.50;;;18.16;48.64
57192;BME280;43052;52.588;13.396;2023-04-24T11:59:12;99819.19;;;17.87;48.69
57192;BME280;43052;52.588;13.396;2023-04-24T12:01:47;99823.00;;;17.64;50.08
57192;BME280;43052;52.588;13.396;2023-04-24T12:04:13;99817.84;;;17.61;51.06
57192;BME280;43052;52.588;13.396;2023-04-24T12:06:39;99813.47;;;17.96;51.21
57192;BME280;43052;52.588;13.396;2023-04-24T12:09:04;99815.72;;;18.38;50.57
57192;BME280;43052;52.588;13.396;2023-04-24T12:11:30;99808.28;;;18.62;50.06
57192;BME280;43052;52.588;13.396;2023-04-24T12:13:55;99803.41;;;18.70;50.40
57192;BME280;43052;52.588;13.396;2023-04-24T12:16:21;99783.66;;;18.60;51.38
57192;BME280;43052;52.588;13.396;2023-04-24T12:18:46;99792.88;;;18.53;50.88
57192;BME280;43052;52.588;13.396;2023-04-24T12:21:22;99784.06;;;18.36;51.22
57192;BME280;43052;52.588;13.396;2023-04-24T12:23:48;99797.81;;;18.43;51.29
57192;BME280;43052;52.588;13.396;2023-04-24T12:26:20;99780.25;;;18.58;50.44
57192;BME280;43052;52.588;13.396;2023-04-24T12:28:47;99773.69;;;18.81;50.55
57192;BME280;43052;52.588;13.396;2023-04-24T12:31:13;99778.16;;;18.97;50.60
57192;BME280;43052;52.588;13.396;2023-04-24T12:33:38;99774.41;;;19.01;49.59
57192;BME280;43052;52.588;13.396;2023-04-24T12:36:04;99771.25;;;18.94;48.69
57192;BME280;43052;52.588;13.396;2023-04-24T12:38:30;99762.09;;;19.00;48.36
57192;BME280;43052;52.588;13.396;2023-04-24T12:41:09;99757.97;;;19.26;48.80
57192;BME280;43052;52.588;13.396;2023-04-24T12:43:35;99756.00;;;19.60;48.16
57192;BME280;43052;52.588;13.396;2023-04-24T12:46:01;99750.16;;;19.84;47.65
57192;BME280;43052;52.588;13.396;2023-04-24T12:48:27;99744.34;;;19.93;45.21
57192;BME280;43052;52.588;13.396;2023-04-24T12:50:53;99744.72;;;20.01;44.11
57192;BME280;43052;52.588;13.396;2023-04-24T12:53:18;99750.78;;;20.18;43.60